createdAt,value
2022-07-25T00:00:05.104Z,6.68
2022-07-25T00:02:33.960Z,7.10
2022-07-25T00:05:03.124Z,6.63
2022-07-25T00:07:32.742Z,8.07
2022-07-25T00:10:00.904Z,6.00
2022-07-25T00:12:29.095Z,5.65
2022-07-25T00:14:57.269Z,5.60
2022-07-25T00:17:25.512Z,5.68
2022-07-25T00:19:53.639Z,6.72
2022-07-25T00:22:21.917Z,6.60
2022-07-25T00:24:51.474Z,6.28
2022-07-25T00:27:19.695Z,7.55
2022-07-25T00:29:47.997Z,5.95
2022-07-25T00:32:16.541Z,8.10
2022-07-25T00:34:44.721Z,7.00
2022-07-25T00:37:12.902Z,6.57
2022-07-25T00:39:41.349Z,8.02
2022-07-25T00:42:10.947Z,6.30
2022-07-25T00:44:39.057Z,5.47
2022-07-25T00:47:07.690Z,7.65
2022-07-25T00:49:35.857Z,5.32
2022-07-25T00:52:04.783Z,6.97
2022-07-25T00:54:33.522Z,6.38
2022-07-25T00:57:02.320Z,6.53
2022-07-25T00:59:31.893Z,6.78
2022-07-25T01:02:00.215Z,7.15
2022-07-25T01:04:32.227Z,9.02
2022-07-25T01:07:01.429Z,7.03
2022-07-25T01:09:29.763Z,6.88
2022-07-25T01:11:57.931Z,6.82
2022-07-25T01:14:26.142Z,6.45
2022-07-25T01:16:55.651Z,6.57
2022-07-25T01:19:23.807Z,6.18
2022-07-25T01:21:54.821Z,8.02
2022-07-25T01:24:23.053Z,5.80
2022-07-25T01:26:51.223Z,6.35
2022-07-25T01:29:19.402Z,7.82
2022-07-25T01:31:47.555Z,5.78
2022-07-25T01:34:15.801Z,5.82
2022-07-25T01:36:43.927Z,7.38
2022-07-25T01:39:13.473Z,6.90
2022-07-25T01:41:41.642Z,6.25
2022-07-25T01:44:10.042Z,9.40
2022-07-25T01:46:38.545Z,7.18
2022-07-25T01:49:06.977Z,8.07
2022-07-25T01:51:35.200Z,7.40
2022-07-25T01:54:03.842Z,9.35
2022-07-25T01:56:36.137Z,8.80
2022-07-25T01:59:04.347Z,9.98
2022-07-25T02:01:32.600Z,6.85
2022-07-25T02:04:00.992Z,8.60
2022-07-25T02:06:29.153Z,7.55
2022-07-25T02:08:57.330Z,7.57
2022-07-25T02:11:25.469Z,6.43
2022-07-25T02:13:54.934Z,8.18
2022-07-25T02:16:29.028Z,6.47
2022-07-25T02:18:57.844Z,7.50
2022-07-25T02:21:26.098Z,8.38
2022-07-25T02:23:54.277Z,6.95
2022-07-25T02:26:22.441Z,8.05
2022-07-25T02:28:51.411Z,7.03
2022-07-25T02:31:20.985Z,9.93
2022-07-25T02:33:49.232Z,6.47
2022-07-25T02:36:17.707Z,7.70
2022-07-25T02:38:45.925Z,6.50
2022-07-25T02:41:14.074Z,8.10
2022-07-25T02:43:42.192Z,5.57
2022-07-25T02:46:10.564Z,7.25
2022-07-25T02:48:40.111Z,5.30
2022-07-25T02:51:08.383Z,7.35
2022-07-25T02:53:55.966Z,6.97
2022-07-25T02:56:24.721Z,5.97
2022-07-25T02:58:52.837Z,8.65
2022-07-25T03:01:21.086Z,6.30
2022-07-25T03:03:50.634Z,6.20
2022-07-25T03:06:18.929Z,7.32
2022-07-25T03:08:47.166Z,8.60
2022-07-25T03:11:16.621Z,7.35
2022-07-25T03:13:44.809Z,7.32
2022-07-25T03:16:13.010Z,7.00
2022-07-25T03:18:41.350Z,6.40
2022-07-25T03:21:10.913Z,7.50
2022-07-25T03:23:39.099Z,6.68
2022-07-25T03:26:07.809Z,7.10
2022-07-25T03:28:35.972Z,7.13
2022-07-25T03:31:05.211Z,7.38
2022-07-25T03:33:33.327Z,7.50
2022-07-25T03:36:01.499Z,7.20
2022-07-25T03:38:31.415Z,7.15
2022-07-25T03:40:59.552Z,7.45
2022-07-25T03:43:27.704Z,8.77
2022-07-25T03:45:55.860Z,8.10
2022-07-25T03:48:24.195Z,7.90
2022-07-25T03:50:52.372Z,8.18
2022-07-25T03:53:20.598Z,8.02
2022-07-25T03:55:50.126Z,7.30
2022-07-25T03:58:18.309Z,7.90
2022-07-25T04:00:47.857Z,7.43
2022-07-25T04:03:16.396Z,7.65
2022-07-25T04:05:47.641Z,9.45
2022-07-25T04:08:16.111Z,13.23
2022-07-25T04:10:44.243Z,12.07
2022-07-25T04:13:13.729Z,9.02
2022-07-25T04:15:41.879Z,8.38
2022-07-25T04:18:10.165Z,8.68
2022-07-25T04:20:44.600Z,7.28
2022-07-25T04:23:12.784Z,7.57
2022-07-25T04:25:41.018Z,8.07
2022-07-25T04:28:09.207Z,8.45
2022-07-25T04:30:38.801Z,9.15
2022-07-25T04:33:07.696Z,7.35
2022-07-25T04:35:36.518Z,7.85
2022-07-25T04:38:08.869Z,10.00
2022-07-25T04:40:40.749Z,9.23
2022-07-25T04:43:09.433Z,7.57
2022-07-25T04:45:39.033Z,7.28
2022-07-25T04:48:07.979Z,8.23
2022-07-25T04:50:36.175Z,8.00
2022-07-25T04:53:04.434Z,10.90
2022-07-25T04:55:33.347Z,9.27
2022-07-25T04:58:01.836Z,8.88
2022-07-25T05:00:29.999Z,7.47
2022-07-25T05:02:59.492Z,9.55
2022-07-25T05:05:27.757Z,10.48
2022-07-25T05:07:58.330Z,8.40
2022-07-25T05:10:27.053Z,9.27
2022-07-25T05:12:55.476Z,8.20
2022-07-25T05:15:24.263Z,11.05
2022-07-25T05:17:52.632Z,10.77
2022-07-25T05:20:22.627Z,10.23
2022-07-25T05:22:50.850Z,10.25
2022-07-25T05:25:19.152Z,11.23
2022-07-25T05:27:47.711Z,9.77
2022-07-25T05:30:16.382Z,10.52
2022-07-25T05:32:44.652Z,10.25
2022-07-25T05:35:13.193Z,11.40
2022-07-25T05:37:42.664Z,10.07
2022-07-25T05:40:11.144Z,8.70
2022-07-25T05:42:39.292Z,8.80
2022-07-25T05:45:08.552Z,9.48
2022-07-25T05:47:36.931Z,9.15
2022-07-25T05:50:06.209Z,9.50
2022-07-25T05:52:35.542Z,10.32
2022-07-25T05:55:14.240Z,10.10
2022-07-25T05:57:49.636Z,8.60
2022-07-25T06:00:28.472Z,8.95
2022-07-25T06:03:03.542Z,8.80
2022-07-25T06:05:32.752Z,11.82
2022-07-25T06:08:00.899Z,9.95
2022-07-25T06:10:30.486Z,8.70
2022-07-25T06:13:00.969Z,10.07
2022-07-25T06:15:29.798Z,11.85
2022-07-25T06:17:58.221Z,12.32
2022-07-25T06:20:27.527Z,10.02
2022-07-25T06:22:55.782Z,9.90
2022-07-25T06:25:24.353Z,10.48
2022-07-25T06:27:53.843Z,10.00
2022-07-25T06:30:22.076Z,8.68
2022-07-25T06:32:50.762Z,9.63
2022-07-25T06:35:19.489Z,9.02
2022-07-25T06:37:48.795Z,8.73
2022-07-25T06:40:17.048Z,10.63
2022-07-25T06:42:46.913Z,12.05
2022-07-25T06:45:17.084Z,7.65
2022-07-25T06:47:45.933Z,10.85
2022-07-25T06:50:15.588Z,9.90
2022-07-25T06:52:44.158Z,9.65
2022-07-25T06:55:13.964Z,10.75
2022-07-25T06:57:42.523Z,8.50
2022-07-25T07:00:13.454Z,10.07
2022-07-25T07:02:56.112Z,10.50
2022-07-25T07:05:25.069Z,10.20
2022-07-25T07:07:53.787Z,11.25
2022-07-25T07:10:22.565Z,9.38
2022-07-25T07:12:51.404Z,9.85
2022-07-25T07:15:19.913Z,9.45
2022-07-25T07:17:48.061Z,9.68
2022-07-25T07:20:17.672Z,9.93
2022-07-25T07:22:47.247Z,8.63
2022-07-25T07:25:20.943Z,9.18
2022-07-25T07:27:51.171Z,10.05
2022-07-25T07:30:24.077Z,11.02
2022-07-25T07:32:55.407Z,11.00
2022-07-25T07:35:25.392Z,12.32
2022-07-25T07:37:55.634Z,9.30
2022-07-25T07:40:25.112Z,7.18
2022-07-25T07:42:53.357Z,8.77
2022-07-25T07:45:23.104Z,10.73
2022-07-25T07:47:53.605Z,9.82
2022-07-25T07:50:26.150Z,9.27
2022-07-25T07:52:56.022Z,10.25
2022-07-25T07:55:41.906Z,8.50
2022-07-25T07:58:10.123Z,8.77
2022-07-25T08:00:39.914Z,12.45
2022-07-25T08:03:09.464Z,9.80
2022-07-25T08:05:41.629Z,10.10
2022-07-25T08:08:11.153Z,9.40
2022-07-25T08:10:40.938Z,8.25
2022-07-25T08:13:15.462Z,8.90
2022-07-25T08:15:44.061Z,9.23
2022-07-25T08:18:17.457Z,8.15
2022-07-25T08:20:48.199Z,8.75
2022-07-25T08:23:16.707Z,10.30
2022-07-25T08:25:45.991Z,8.43
2022-07-25T08:28:15.049Z,9.82
2022-07-25T08:30:43.498Z,9.73
2022-07-25T08:33:13.423Z,9.88
2022-07-25T08:35:42.126Z,9.23
2022-07-25T08:38:12.002Z,8.23
2022-07-25T08:40:40.337Z,7.85
2022-07-25T08:43:12.184Z,9.48
2022-07-25T08:45:46.461Z,7.97
2022-07-25T08:48:15.034Z,11.68
2022-07-25T08:50:43.945Z,9.10
2022-07-25T08:53:32.731Z,7.80
2022-07-25T08:56:04.211Z,11.35
2022-07-25T08:58:36.697Z,10.98
2022-07-25T09:01:04.945Z,10.40
2022-07-25T09:03:40.265Z,9.23
2022-07-25T09:06:18.752Z,11.40
2022-07-25T09:08:59.455Z,9.48
2022-07-25T09:11:33.365Z,8.90
2022-07-25T09:14:04.946Z,8.77
2022-07-25T09:16:35.314Z,9.20
2022-07-25T09:19:08.384Z,8.25
2022-07-25T09:21:36.554Z,8.13
2022-07-25T09:24:15.759Z,10.98
2022-07-25T09:26:48.304Z,10.65
2022-07-25T09:29:21.454Z,11.73
2022-07-25T09:31:50.511Z,9.10
2022-07-25T09:34:30.997Z,8.25
2022-07-25T09:36:59.245Z,7.80
2022-07-25T09:39:45.835Z,11.88
2022-07-25T09:42:20.935Z,8.77
2022-07-25T09:45:04.160Z,8.45
2022-07-25T09:47:33.587Z,9.95
2022-07-25T09:50:02.678Z,7.70
2022-07-25T09:52:31.505Z,12.52
2022-07-25T09:55:03.672Z,8.38
2022-07-25T09:57:31.888Z,7.47
2022-07-25T10:00:01.451Z,9.60
2022-07-25T10:02:42.517Z,7.70
2022-07-25T10:05:15.434Z,7.70
2022-07-25T10:07:46.882Z,7.32
2022-07-25T10:10:30.308Z,7.78
2022-07-25T10:13:07.875Z,8.68
2022-07-25T10:15:47.045Z,8.25
2022-07-25T10:18:16.694Z,8.20
2022-07-25T10:20:45.326Z,11.30
2022-07-25T10:23:25.121Z,8.27
2022-07-25T10:26:08.582Z,9.18
2022-07-25T10:28:39.936Z,7.18
2022-07-25T10:31:21.728Z,7.65
2022-07-25T10:33:52.882Z,7.43
2022-07-25T10:36:22.598Z,7.00
2022-07-25T10:38:53.741Z,7.97
2022-07-25T10:41:26.952Z,7.47
2022-07-25T10:44:00.683Z,7.40
2022-07-25T10:46:31.175Z,7.18
2022-07-25T10:49:01.506Z,12.20
2022-07-25T10:51:31.107Z,9.00
2022-07-25T10:53:59.576Z,8.00
2022-07-25T10:56:29.819Z,7.03
2022-07-25T10:58:59.310Z,7.47
2022-07-25T11:01:29.356Z,8.45
2022-07-25T11:04:00.320Z,8.02
2022-07-25T11:06:33.982Z,8.57
2022-07-25T11:09:03.405Z,9.38
2022-07-25T11:11:37.730Z,7.57
2022-07-25T11:14:06.635Z,13.25
2022-07-25T11:16:34.878Z,7.80
2022-07-25T11:19:03.194Z,10.23
2022-07-25T11:21:31.545Z,9.82
2022-07-25T11:23:59.727Z,8.25
2022-07-25T11:26:27.951Z,6.20
2022-07-25T11:28:58.506Z,7.93
2022-07-25T11:31:27.655Z,9.88
2022-07-25T11:33:56.043Z,6.88
2022-07-25T11:36:24.483Z,8.75
2022-07-25T11:38:53.477Z,7.47
2022-07-25T11:41:29.903Z,6.50
2022-07-25T11:43:59.431Z,8.68
2022-07-25T11:46:27.589Z,9.65
2022-07-25T11:49:06.082Z,9.10
2022-07-25T11:51:38.395Z,8.65
2022-07-25T11:54:11.663Z,9.35
2022-07-25T11:56:43.451Z,7.20
2022-07-25T11:59:13.313Z,8.13
2022-07-25T12:01:43.486Z,9.02
2022-07-25T12:04:14.207Z,11.23
2022-07-25T12:06:43.809Z,9.80
2022-07-25T12:09:19.055Z,9.18
2022-07-25T12:11:48.669Z,12.23
2022-07-25T12:14:18.482Z,7.60
2022-07-25T12:16:46.889Z,5.60
2022-07-25T12:19:22.958Z,6.55
2022-07-25T12:21:51.151Z,5.45
2022-07-25T12:24:19.315Z,5.22
2022-07-25T12:26:47.536Z,6.05
2022-07-25T12:29:17.126Z,6.80
2022-07-25T12:31:45.307Z,7.47
2022-07-25T12:34:14.044Z,7.22
2022-07-25T12:36:44.993Z,6.13
2022-07-25T12:39:13.355Z,6.55
2022-07-25T12:41:42.520Z,7.43
2022-07-25T12:44:11.056Z,5.60
2022-07-25T12:46:48.810Z,6.47
2022-07-25T12:49:17.956Z,5.50
2022-07-25T12:51:46.315Z,4.82
2022-07-25T12:54:21.767Z,5.15
2022-07-25T12:56:50.748Z,6.05
2022-07-25T12:59:19.010Z,4.80
2022-07-25T13:01:48.591Z,8.60
2022-07-25T13:04:16.876Z,5.57
2022-07-25T13:06:45.328Z,7.88
2022-07-25T13:09:13.688Z,7.03
2022-07-25T13:11:42.366Z,7.57
2022-07-25T13:14:10.714Z,5.57
2022-07-25T13:16:39.006Z,7.00
2022-07-25T13:19:08.963Z,8.82
2022-07-25T13:21:37.956Z,5.68
2022-07-25T13:24:08.176Z,8.23
2022-07-25T13:26:37.388Z,10.70
2022-07-25T13:29:08.615Z,6.40
2022-07-25T13:31:38.482Z,9.30
2022-07-25T13:34:08.434Z,5.18
2022-07-25T13:36:38.024Z,6.13
2022-07-25T13:39:07.161Z,6.93
2022-07-25T13:41:35.666Z,5.95
2022-07-25T13:44:03.948Z,6.28
2022-07-25T13:46:32.854Z,5.28
2022-07-25T13:49:01.113Z,12.00
2022-07-25T13:51:30.649Z,5.97
2022-07-25T13:53:58.832Z,6.75
2022-07-25T13:56:26.985Z,11.38
2022-07-25T13:58:55.096Z,8.70
2022-07-25T14:01:23.859Z,5.95
2022-07-25T14:03:52.103Z,6.03
2022-07-25T14:06:20.235Z,6.25
2022-07-25T14:08:49.897Z,7.43
2022-07-25T14:11:18.103Z,5.72
2022-07-25T14:13:46.377Z,9.88
2022-07-25T14:16:17.352Z,8.10
2022-07-25T14:18:45.681Z,6.95
2022-07-25T14:21:13.951Z,6.30
2022-07-25T14:23:42.479Z,6.60
2022-07-25T14:26:11.929Z,9.32
2022-07-25T14:28:40.162Z,7.43
2022-07-25T14:31:08.628Z,8.23
2022-07-25T14:33:39.839Z,11.55
2022-07-25T14:36:08.648Z,6.50
2022-07-25T14:38:37.197Z,8.10
2022-07-25T14:41:10.514Z,6.70
2022-07-25T14:43:42.355Z,7.18
2022-07-25T14:46:10.883Z,8.63
2022-07-25T14:48:39.656Z,7.10
2022-07-25T14:51:08.530Z,8.43
2022-07-25T14:53:37.344Z,9.60
2022-07-25T14:56:07.045Z,7.25
2022-07-25T14:58:36.068Z,7.88
2022-07-25T15:01:06.302Z,8.38
2022-07-25T15:03:34.509Z,7.70
2022-07-25T15:06:03.004Z,5.78
2022-07-25T15:08:31.231Z,6.22
2022-07-25T15:10:59.401Z,6.82
2022-07-25T15:13:31.989Z,6.97
2022-07-25T15:16:01.518Z,9.75
2022-07-25T15:18:31.458Z,6.72
2022-07-25T15:20:59.733Z,8.52
2022-07-25T15:23:30.474Z,7.90
2022-07-25T15:26:02.452Z,7.05
2022-07-25T15:28:31.831Z,7.53
2022-07-25T15:31:00.286Z,10.05
2022-07-25T15:33:29.978Z,6.30
2022-07-25T15:35:58.191Z,7.53
2022-07-25T15:38:26.440Z,7.30
2022-07-25T15:40:54.670Z,10.10
2022-07-25T15:43:22.870Z,6.45
2022-07-25T15:45:51.277Z,7.38
2022-07-25T15:48:19.678Z,6.43
2022-07-25T15:50:51.577Z,6.55
2022-07-25T15:53:20.098Z,10.18
2022-07-25T15:55:48.526Z,6.80
2022-07-25T15:58:16.750Z,7.88
2022-07-25T16:00:45.117Z,6.78
2022-07-25T16:03:13.851Z,9.27
2022-07-25T16:05:44.034Z,8.52
2022-07-25T16:08:13.674Z,6.22
2022-07-25T16:10:41.943Z,7.95
2022-07-25T16:13:10.158Z,7.95
2022-07-25T16:15:38.599Z,8.45
2022-07-25T16:18:07.355Z,8.73
2022-07-25T16:20:35.563Z,8.40
2022-07-25T16:23:03.965Z,6.78
2022-07-25T16:25:33.518Z,8.48
2022-07-25T16:28:01.723Z,10.68
2022-07-25T16:30:29.972Z,8.30
2022-07-25T16:32:58.137Z,7.07
2022-07-25T16:35:26.529Z,5.63
2022-07-25T16:37:54.833Z,7.82
2022-07-25T16:40:28.718Z,5.72
2022-07-25T16:43:00.305Z,7.80
2022-07-25T16:45:29.026Z,9.98
2022-07-25T16:47:57.227Z,10.50
2022-07-25T16:50:25.382Z,6.50
2022-07-25T16:52:54.475Z,13.25
2022-07-25T16:55:22.749Z,7.70
2022-07-25T16:57:51.179Z,7.70
2022-07-25T17:00:20.913Z,8.60
2022-07-25T17:02:50.062Z,5.50
2022-07-25T17:05:18.325Z,6.38
2022-07-25T17:07:48.616Z,9.35
2022-07-25T17:10:16.963Z,9.98
2022-07-25T17:12:45.175Z,8.82
2022-07-25T17:15:13.667Z,7.47
2022-07-25T17:17:43.322Z,7.45
2022-07-25T17:20:12.304Z,10.82
2022-07-25T17:22:40.509Z,6.35
2022-07-25T17:25:09.449Z,5.32
2022-07-25T17:27:37.785Z,5.85
2022-07-25T17:30:07.139Z,5.53
2022-07-25T17:32:35.355Z,6.38
2022-07-25T17:35:05.703Z,8.40
2022-07-25T17:37:33.858Z,7.18
2022-07-25T17:40:02.422Z,6.20
2022-07-25T17:42:30.615Z,4.60
2022-07-25T17:44:58.839Z,5.80
2022-07-25T17:47:27.357Z,5.90
2022-07-25T17:49:55.536Z,4.47
2022-07-25T17:52:25.080Z,7.57
2022-07-25T17:54:53.803Z,3.15
2022-07-25T17:57:22.303Z,4.40
2022-07-25T17:59:50.690Z,4.88
2022-07-25T18:02:19.191Z,5.43
2022-07-25T18:04:47.434Z,7.03
2022-07-25T18:07:15.759Z,4.53
2022-07-25T18:09:45.226Z,4.47
2022-07-25T18:12:13.379Z,6.70
2022-07-25T18:14:41.865Z,4.43
2022-07-25T18:17:10.560Z,5.05
2022-07-25T18:19:38.729Z,4.88
2022-07-25T18:22:07.183Z,2.95
2022-07-25T18:24:35.450Z,5.65
2022-07-25T18:27:05.936Z,5.65
2022-07-25T18:29:36.962Z,4.85
2022-07-25T18:32:05.662Z,3.83
2022-07-25T18:34:33.956Z,5.47
2022-07-25T18:37:02.347Z,7.93
2022-07-25T18:39:30.740Z,3.33
2022-07-25T18:41:58.955Z,2.90
2022-07-25T18:44:28.735Z,6.65
2022-07-25T18:46:56.930Z,6.38
2022-07-25T18:49:27.138Z,6.35
2022-07-25T18:51:55.398Z,4.78
2022-07-25T18:54:23.952Z,6.20
2022-07-25T18:56:52.140Z,5.65
2022-07-25T18:59:20.443Z,3.65
2022-07-25T19:01:51.034Z,4.07
2022-07-25T19:04:19.626Z,5.32
2022-07-25T19:06:47.979Z,5.30
2022-07-25T19:09:16.213Z,4.20
2022-07-25T19:11:44.332Z,4.05
2022-07-25T19:14:12.641Z,4.65
2022-07-25T19:16:41.540Z,6.28
2022-07-25T19:19:11.617Z,8.10
2022-07-25T19:21:39.814Z,4.50
2022-07-25T19:24:08.667Z,8.07
2022-07-25T19:26:36.982Z,3.08
2022-07-25T19:29:07.377Z,7.03
2022-07-25T19:31:37.725Z,5.18
2022-07-25T19:34:06.427Z,1.92
2022-07-25T19:36:36.237Z,4.95
2022-07-25T19:39:05.992Z,3.92
2022-07-25T19:41:34.577Z,6.82
2022-07-25T19:44:02.737Z,4.40
2022-07-25T19:46:33.528Z,4.05
2022-07-25T19:49:04.145Z,2.95
2022-07-25T19:51:33.353Z,6.38
2022-07-25T19:54:04.284Z,3.22
2022-07-25T19:56:34.170Z,4.00
2022-07-25T19:59:03.276Z,3.92
2022-07-25T20:01:34.208Z,5.20
2022-07-25T20:04:03.089Z,3.92
2022-07-25T20:06:31.610Z,5.13
2022-07-25T20:08:59.952Z,3.75
2022-07-25T20:11:29.565Z,6.43
2022-07-25T20:13:57.729Z,1.95
2022-07-25T20:16:25.990Z,5.30
2022-07-25T20:18:54.244Z,3.72
2022-07-25T20:21:22.716Z,2.58
2022-07-25T20:23:50.966Z,3.30
2022-07-25T20:26:19.448Z,3.03
2022-07-25T20:28:48.950Z,2.25
2022-07-25T20:31:18.194Z,4.18
2022-07-25T20:33:46.483Z,2.78
2022-07-25T20:36:14.765Z,3.85
2022-07-25T20:38:42.947Z,3.20
2022-07-25T20:41:12.616Z,2.85
2022-07-25T20:43:41.475Z,3.67
2022-07-25T20:46:11.154Z,3.42
2022-07-25T20:48:39.450Z,7.03
2022-07-25T20:51:07.895Z,7.13
2022-07-25T20:53:36.190Z,4.68
2022-07-25T20:56:04.586Z,3.22
2022-07-25T20:58:32.812Z,5.00
2022-07-25T21:01:01.329Z,3.42
2022-07-25T21:03:30.972Z,7.30
2022-07-25T21:06:01.287Z,2.42
2022-07-25T21:08:29.486Z,3.63
2022-07-25T21:10:58.738Z,2.28
2022-07-25T21:13:26.973Z,3.33
2022-07-25T21:15:59.399Z,2.83
2022-07-25T21:18:27.654Z,3.45
2022-07-25T21:20:57.197Z,3.00
2022-07-25T21:23:26.362Z,3.20
2022-07-25T21:25:54.722Z,2.95
2022-07-25T21:28:22.994Z,3.35
2022-07-25T21:30:54.279Z,3.00
2022-07-25T21:33:22.821Z,3.13
2022-07-25T21:35:53.635Z,2.10
2022-07-25T21:38:26.109Z,2.50
2022-07-25T21:40:56.133Z,6.43
2022-07-25T21:43:24.399Z,2.90
2022-07-25T21:45:52.641Z,3.13
2022-07-25T21:48:43.087Z,4.65
2022-07-25T21:51:19.158Z,4.85
2022-07-25T21:53:53.047Z,2.85
2022-07-25T21:56:21.460Z,2.50
2022-07-25T21:58:49.914Z,5.75
2022-07-25T22:01:20.985Z,2.70
2022-07-25T22:03:49.324Z,2.50
2022-07-25T22:06:19.019Z,4.28
2022-07-25T22:08:47.198Z,3.58
2022-07-25T22:11:38.502Z,3.30
2022-07-25T22:14:05.715Z,3.47
2022-07-25T22:16:33.857Z,4.00
2022-07-25T22:19:02.200Z,4.53
2022-07-25T22:21:30.683Z,2.85
2022-07-25T22:23:58.804Z,5.20
2022-07-25T22:26:28.479Z,3.28
2022-07-25T22:28:56.700Z,3.05
2022-07-25T22:31:24.913Z,3.28
2022-07-25T22:33:53.104Z,3.53
2022-07-25T22:36:21.709Z,2.83
2022-07-25T22:38:50.321Z,2.28
2022-07-25T22:41:18.485Z,3.05
2022-07-25T22:43:53.128Z,2.90
2022-07-25T22:46:27.133Z,4.88
2022-07-25T22:48:55.400Z,2.30
2022-07-25T22:51:24.478Z,3.33
2022-07-25T22:53:52.801Z,3.78
2022-07-25T22:56:21.237Z,8.20
2022-07-25T22:58:51.036Z,7.28
2022-07-25T23:01:19.495Z,6.28
2022-07-25T23:03:49.855Z,6.13
2022-07-25T23:06:18.906Z,3.92
2022-07-25T23:08:47.096Z,4.80
2022-07-25T23:11:15.290Z,2.70
2022-07-25T23:13:43.660Z,5.28
2022-07-25T23:16:13.271Z,5.90
2022-07-25T23:18:41.553Z,3.53
2022-07-25T23:21:09.898Z,5.47
2022-07-25T23:23:38.358Z,3.40
2022-07-25T23:26:06.493Z,4.53
2022-07-25T23:28:34.621Z,5.57
2022-07-25T23:31:02.801Z,6.13
2022-07-25T23:33:32.378Z,5.13
2022-07-25T23:36:00.603Z,5.68
2022-07-25T23:38:28.754Z,8.15
2022-07-25T23:40:56.947Z,8.80
2022-07-25T23:43:56.453Z,5.47
2022-07-25T23:46:13.363Z,7.60
2022-07-25T23:48:42.926Z,6.25
2022-07-25T23:51:11.109Z,7.80
2022-07-25T23:53:39.304Z,6.53
2022-07-25T23:56:07.664Z,7.25
2022-07-25T23:58:35.799Z,7.18
